Time;durP1;ratioP1;P1;durP2;ratioP2;P2;SDS_P1;SDS_P2;PMS_P1;PMS_P2;Temp;Humidity;BMP_temperature;BMP_pressure;BME280_temperature;BME280_humidity;BME280_pressure;Samples;Min_cycle;Max_cycle;Signal;HPM_P1;HPM_P2
2022/05/24 00:00:11;;;;;;;2.37;2.27;;;21.20;49.60;;;;;;5019130;28;20230;-58
2022/05/24 00:02:37;;;;;;;2.23;2.13;;;21.20;49.60;;;;;;5024853;28;20452;-58
2022/05/24 00:05:02;;;;;;;2.23;2.13;;;21.20;49.60;;;;;;5022991;28;20456;-58
2022/05/24 00:07:29;;;;;;;2.47;2.37;;;21.20;49.60;;;;;;5026192;28;20238;-58
2022/05/24 00:09:54;;;;;;;2.20;2.10;;;21.20;49.60;;;;;;5023823;28;20242;-58
2022/05/24 00:12:20;;;;;;;2.30;2.20;;;21.20;49.60;;;;;;5030544;28;20455;-58
2022/05/24 00:17:30;;;;;;;2.47;2.37;;;21.20;49.70;;;;;;5023078;28;20293;-58
2022/05/24 00:19:55;;;;;;;2.50;2.30;;;21.20;49.60;;;;;;5021435;28;20440;-58
2022/05/24 00:22:21;;;;;;;2.57;2.47;;;21.20;49.70;;;;;;5021124;28;20857;-58
2022/05/24 00:24:46;;;;;;;2.00;1.90;;;21.20;49.70;;;;;;5019729;28;20685;-58
2022/05/24 00:27:12;;;;;;;2.47;2.33;;;21.20;49.60;;;;;;5017023;28;20251;-58
2022/05/24 00:29:37;;;;;;;2.30;2.20;;;21.20;49.60;;;;;;5023738;28;20234;-58
2022/05/24 00:32:03;;;;;;;2.40;2.30;;;21.20;49.60;;;;;;5021124;28;20314;-58
2022/05/24 00:34:29;;;;;;;2.30;2.20;;;21.20;49.60;;;;;;5021089;28;20231;-58
2022/05/24 00:36:55;;;;;;;2.40;2.30;;;21.20;49.60;;;;;;5026293;28;20475;-58
2022/05/24 00:39:20;;;;;;;2.47;2.37;;;21.20;49.60;;;;;;5021701;28;20677;-59
2022/05/24 00:42:12;;;;;;;2.40;2.30;;;21.20;49.60;;;;;;5027262;28;20217;-59
2022/05/24 00:44:41;;;;;;;2.57;2.47;;;21.20;49.60;;;;;;5020064;28;20228;-58
2022/05/24 00:47:20;;;;;;;2.50;2.40;;;21.20;49.60;;;;;;5023684;28;20543;-59
2022/05/24 00:49:58;;;;;;;2.53;2.43;;;21.20;49.60;;;;;;5025324;28;20964;-58
2022/05/24 00:52:30;;;;;;;2.30;2.20;;;21.20;49.60;;;;;;5021791;28;20428;-58
2022/05/24 00:54:59;;;;;;;2.43;2.33;;;21.20;49.60;;;;;;5022842;28;20456;-58
2022/05/24 00:57:30;;;;;;;2.43;2.23;;;21.20;49.60;;;;;;5022974;28;20440;-58
2022/05/24 01:00:11;;;;;;;2.23;2.13;;;21.20;49.60;;;;;;5027008;28;20815;-58
2022/05/24 01:02:38;;;;;;;2.30;2.20;;;21.20;49.60;;;;;;5027743;28;20991;-58
2022/05/24 01:05:10;;;;;;;2.30;2.20;;;21.20;49.60;;;;;;5023589;28;20459;-58
2022/05/24 01:07:37;;;;;;;2.23;2.13;;;21.20;49.60;;;;;;5022077;28;20773;-58
2022/05/24 01:10:11;;;;;;;2.30;2.20;;;21.20;49.60;;;;;;5019449;28;20477;-58
2022/05/24 01:12:42;;;;;;;2.13;2.03;;;21.20;49.60;;;;;;5020594;28;20518;-58
2022/05/24 01:15:10;;;;;;;2.20;2.10;;;21.20;49.70;;;;;;5021247;28;20783;-58
2022/05/24 01:17:36;;;;;;;2.40;2.30;;;21.20;49.70;;;;;;5022777;28;20479;-59
2022/05/24 01:20:03;;;;;;;2.33;2.23;;;21.20;49.70;;;;;;5024049;28;20944;-58
2022/05/24 01:23:03;;;;;;;2.57;2.47;;;21.10;49.60;;;;;;5020055;28;20449;-58
2022/05/24 01:25:49;;;;;;;2.33;2.23;;;21.20;49.60;;;;;;5020544;28;20502;-58
2022/05/24 01:28:28;;;;;;;2.23;2.13;;;21.20;49.70;;;;;;5019427;28;20457;-58
2022/05/24 01:30:55;;;;;;;2.33;2.23;;;21.10;49.60;;;;;;5024615;28;20466;-58
2022/05/24 01:36:10;;;;;;;2.37;2.27;;;21.20;49.70;;;;;;5021380;28;20956;-58
2022/05/24 01:38:51;;;;;;;2.30;2.20;;;21.20;49.70;;;;;;5021247;28;20772;-58
2022/05/24 01:41:28;;;;;;;2.30;2.20;;;21.10;49.60;;;;;;5019392;28;20488;-58
2022/05/24 01:43:55;;;;;;;2.43;2.33;;;21.20;49.70;;;;;;5022422;28;20456;-58
2022/05/24 01:46:30;;;;;;;2.20;2.10;;;21.20;49.70;;;;;;5021814;28;20489;-58
2022/05/24 01:49:00;;;;;;;2.37;2.23;;;21.20;49.70;;;;;;5019787;28;20539;-58
2022/05/24 01:51:42;;;;;;;2.40;2.30;;;21.20;49.70;;;;;;5022808;28;20508;-58
2022/05/24 01:54:08;;;;;;;2.13;2.03;;;21.20;49.70;;;;;;5021149;28;20542;-57
2022/05/24 01:57:06;;;;;;;2.00;1.90;;;21.20;49.70;;;;;;5021287;28;20536;-58
2022/05/24 01:59:32;;;;;;;2.30;2.20;;;21.20;49.70;;;;;;5020644;28;20540;-58
2022/05/24 02:02:00;;;;;;;2.20;2.10;;;21.20;49.70;;;;;;5020066;28;20453;-58
2022/05/24 02:04:27;;;;;;;2.67;2.57;;;21.10;49.60;;;;;;5022826;28;20449;-59
2022/05/24 02:07:06;;;;;;;2.30;2.20;;;21.10;49.60;;;;;;5021110;28;20483;-58
2022/05/24 02:09:39;;;;;;;1.93;1.83;;;21.10;49.70;;;;;;5019401;28;20472;-58
2022/05/24 02:12:11;;;;;;;2.10;2.00;;;21.10;49.70;;;;;;5017826;28;20453;-58
2022/05/24 02:14:43;;;;;;;2.37;2.27;;;21.10;49.70;;;;;;5017006;28;20436;-58
2022/05/24 02:17:20;;;;;;;2.13;2.03;;;21.20;49.70;;;;;;5019816;28;20507;-58
2022/05/24 02:19:51;;;;;;;2.63;2.53;;;21.20;49.70;;;;;;5017505;28;20957;-58
2022/05/24 02:22:20;;;;;;;2.27;2.17;;;21.10;49.70;;;;;;5020479;28;20556;-58
2022/05/24 02:25:02;;;;;;;2.40;2.30;;;21.20;49.70;;;;;;5016600;28;20451;-59
2022/05/24 02:27:28;;;;;;;2.43;2.33;;;21.10;49.70;;;;;;5021952;28;20491;-59
2022/05/24 02:29:54;;;;;;;2.33;2.23;;;21.10;49.70;;;;;;5024333;28;20465;-59
2022/05/24 02:32:20;;;;;;;2.13;2.03;;;21.10;49.70;;;;;;5018501;28;20259;-59
2022/05/24 02:34:45;;;;;;;2.67;2.43;;;21.20;49.70;;;;;;5024263;28;20784;-59
2022/05/24 02:37:11;;;;;;;2.10;2.00;;;21.10;49.70;;;;;;5020055;28;20598;-59
2022/05/24 02:41:28;;;;;;;2.37;2.20;;;21.20;49.70;;;;;;5020254;28;20306;-58
2022/05/24 02:42:22;;;;;;;2.70;2.50;;;21.10;49.70;;;;;;5020772;28;20227;-58
2022/05/24 02:44:48;;;;;;;2.30;2.20;;;21.10;49.70;;;;;;5021362;28;20509;-58
2022/05/24 02:47:14;;;;;;;2.53;2.33;;;21.20;49.80;;;;;;5020434;28;20231;-58
2022/05/24 02:49:40;;;;;;;2.50;2.40;;;21.10;49.70;;;;;;5019661;28;20436;-59
2022/05/24 02:52:06;;;;;;;2.20;2.10;;;21.10;49.70;;;;;;5019158;28;21027;-58
2022/05/24 02:54:31;;;;;;;2.10;1.90;;;21.10;49.70;;;;;;5021068;28;20215;-59
2022/05/24 02:56:58;;;;;;;2.93;2.30;;;21.10;49.70;;;;;;5018812;28;20239;-58
2022/05/24 02:59:24;;;;;;;2.23;2.13;;;21.10;49.70;;;;;;5020927;28;20223;-59
2022/05/24 03:01:49;;;;;;;2.47;2.37;;;21.20;49.70;;;;;;5016887;28;20445;-58
2022/05/24 03:04:15;;;;;;;2.30;2.20;;;21.10;49.70;;;;;;5020515;28;20242;-59
2022/05/24 03:09:35;;;;;;;2.23;2.13;;;21.10;49.70;;;;;;5021510;28;20297;-58
2022/05/24 03:14:51;;;;;;;1.87;1.77;;;21.10;49.70;;;;;;5016121;28;20463;-58
2022/05/24 03:17:17;;;;;;;2.10;2.00;;;21.10;49.70;;;;;;5018872;28;20428;-58
2022/05/24 03:19:43;;;;;;;2.27;2.17;;;21.10;49.70;;;;;;5016913;28;20459;-60
2022/05/24 03:22:09;;;;;;;2.33;2.23;;;21.10;49.70;;;;;;5019642;28;20303;-59
2022/05/24 03:24:38;;;;;;;1.97;1.87;;;21.10;49.70;;;;;;5022327;28;20539;-59
2022/05/24 03:27:11;;;;;;;2.10;2.00;;;21.10;49.70;;;;;;5016054;28;20215;-59
2022/05/24 03:29:41;;;;;;;2.30;2.20;;;21.10;49.70;;;;;;5024667;28;20814;-59
2022/05/24 03:32:09;;;;;;;2.57;2.37;;;21.10;49.70;;;;;;5017666;28;20885;-58
2022/05/24 03:34:36;;;;;;;2.20;2.00;;;21.10;49.70;;;;;;5022015;28;20440;-58
2022/05/24 03:37:01;;;;;;;2.27;2.17;;;21.10;49.70;;;;;;5020545;28;20460;-59
2022/05/24 03:39:27;;;;;;;2.03;1.93;;;21.10;49.70;;;;;;5019151;28;20461;-58
2022/05/24 03:41:53;;;;;;;2.10;2.00;;;21.10;49.70;;;;;;5015486;28;20216;-58
2022/05/24 03:44:19;;;;;;;1.80;1.70;;;21.10;49.70;;;;;;5023505;28;20274;-58
2022/05/24 03:46:45;;;;;;;1.90;1.80;;;21.10;49.70;;;;;;5023480;28;20549;-59
2022/05/24 03:49:11;;;;;;;2.17;2.07;;;21.10;50.40;;;;;;5017730;28;20456;-59
2022/05/24 03:51:36;;;;;;;2.23;2.13;;;21.10;49.70;;;;;;5021250;28;20708;-58
2022/05/24 03:54:02;;;;;;;2.10;2.00;;;21.10;49.70;;;;;;5019864;28;20230;-58
2022/05/24 03:56:28;;;;;;;2.03;1.93;;;21.10;49.70;;;;;;5024126;28;20227;-58
2022/05/24 03:58:54;;;;;;;1.87;1.77;;;21.10;49.70;;;;;;5013734;28;20310;-58
2022/05/24 04:01:20;;;;;;;2.07;1.97;;;21.10;49.70;;;;;;5026320;28;20551;-58
2022/05/24 04:03:45;;;;;;;2.20;2.10;;;21.10;49.60;;;;;;5016976;28;20673;-58
2022/05/24 04:06:11;;;;;;;2.40;2.20;;;21.10;49.60;;;;;;5018420;28;20672;-58
2022/05/24 04:08:36;;;;;;;2.40;1.70;;;21.10;49.70;;;;;;5018458;28;20562;-58
2022/05/24 04:11:08;;;;;;;2.07;1.97;;;21.10;49.70;;;;;;5017754;28;20236;-58
2022/05/24 04:13:35;;;;;;;2.03;1.90;;;21.10;49.70;;;;;;5017724;28;20212;-58
2022/05/24 04:16:01;;;;;;;2.13;2.03;;;21.10;49.70;;;;;;5021522;28;20419;-58
2022/05/24 04:18:27;;;;;;;1.87;1.77;;;21.10;49.70;;;;;;5017208;28;20531;-58
2022/05/24 04:20:53;;;;;;;2.37;2.27;;;21.20;50.50;;;;;;5015029;28;20216;-59
2022/05/24 04:23:22;;;;;;;2.20;2.10;;;21.10;49.70;;;;;;5019217;28;20227;-61
2022/05/24 04:25:48;;;;;;;2.10;2.00;;;21.10;49.70;;;;;;5018726;28;20471;-61
2022/05/24 04:28:18;;;;;;;2.20;2.10;;;21.10;49.60;;;;;;5020385;28;20509;-61
2022/05/24 04:30:44;;;;;;;1.77;1.67;;;21.10;49.60;;;;;;5024426;28;20483;-61
2022/05/24 04:33:10;;;;;;;1.90;1.80;;;21.10;49.70;;;;;;5024088;28;21150;-61
2022/05/24 04:35:35;;;;;;;2.03;1.93;;;21.10;49.70;;;;;;5024986;28;20452;-60
2022/05/24 04:38:01;;;;;;;2.20;2.10;;;21.10;49.60;;;;;;5025956;28;20262;-61
2022/05/24 04:43:11;;;;;;;2.13;2.03;;;21.10;49.60;;;;;;5024135;28;20290;-60
2022/05/24 04:45:37;;;;;;;2.60;2.10;;;21.20;49.60;;;;;;5023799;28;20459;-59
2022/05/24 04:48:03;;;;;;;1.87;1.77;;;21.20;49.60;;;;;;5029143;28;20362;-59
2022/05/24 04:50:29;;;;;;;2.30;2.20;;;21.20;49.60;;;;;;5027459;28;20273;-58
2022/05/24 04:52:54;;;;;;;2.00;1.90;;;21.20;49.50;;;;;;5023507;28;20435;-59
2022/05/24 04:55:20;;;;;;;2.40;2.30;;;21.20;49.50;;;;;;5020460;28;20701;-59
2022/05/24 04:57:45;;;;;;;2.20;2.00;;;21.20;49.50;;;;;;5018527;28;20239;-59
2022/05/24 05:00:14;;;;;;;1.90;1.80;;;21.20;49.50;;;;;;5023587;28;20704;-58
2022/05/24 05:02:40;;;;;;;2.10;2.00;;;21.20;49.50;;;;;;5026528;28;20215;-59
2022/05/24 05:05:06;;;;;;;2.03;1.93;;;21.20;49.50;;;;;;5025011;28;20609;-58
2022/05/24 05:07:32;;;;;;;2.03;1.93;;;21.20;49.50;;;;;;5017702;28;20424;-58
2022/05/24 05:09:58;;;;;;;2.30;2.20;;;21.20;49.50;;;;;;5022923;28;20438;-58
2022/05/24 05:12:26;;;;;;;1.83;1.73;;;21.20;49.50;;;;;;5025543;28;20449;-58
2022/05/24 05:14:52;;;;;;;1.97;1.87;;;21.20;49.50;;;;;;5022086;28;20219;-58
2022/05/24 05:17:19;;;;;;;1.97;1.87;;;21.20;49.50;;;;;;5018642;28;20428;-58
2022/05/24 05:19:45;;;;;;;2.00;1.90;;;21.20;49.50;;;;;;5021253;28;20477;-59
2022/05/24 05:22:11;;;;;;;2.00;1.90;;;21.20;49.50;;;;;;5020898;28;20449;-60
2022/05/24 05:24:37;;;;;;;1.50;1.40;;;21.20;49.50;;;;;;5025271;28;20497;-59
2022/05/24 05:27:04;;;;;;;1.90;1.80;;;21.20;49.50;;;;;;5019194;28;20424;-58
2022/05/24 05:32:19;;;;;;;1.50;1.40;;;21.20;49.50;;;;;;5016331;28;20443;-59
2022/05/24 05:34:45;;;;;;;2.33;2.23;;;21.20;49.50;;;;;;5026725;28;20506;-59
2022/05/24 05:37:11;;;;;;;1.97;1.87;;;21.20;49.50;;;;;;5020640;28;20584;-59
2022/05/24 05:39:37;;;;;;;1.80;1.70;;;21.20;49.50;;;;;;5014073;28;20922;-58
2022/05/24 05:42:03;;;;;;;1.70;1.60;;;21.20;49.50;;;;;;5018163;28;20223;-58
2022/05/24 05:44:29;;;;;;;1.80;1.70;;;21.20;49.50;;;;;;5024195;28;20238;-59
2022/05/24 05:46:55;;;;;;;1.80;1.70;;;21.20;49.50;;;;;;5018548;28;20427;-58
2022/05/24 05:49:21;;;;;;;1.63;1.53;;;21.20;49.50;;;;;;5021634;28;20538;-58
2022/05/24 05:51:47;;;;;;;2.00;1.90;;;21.20;49.60;;;;;;5025669;28;20498;-58
2022/05/24 05:54:12;;;;;;;1.90;1.80;;;21.20;49.50;;;;;;5023052;28;20230;-59
2022/05/24 05:56:40;;;;;;;1.70;1.60;;;21.20;49.50;;;;;;5024386;28;20708;-58
2022/05/24 05:59:05;;;;;;;1.93;1.83;;;21.20;49.50;;;;;;5021328;28;20231;-58
2022/05/24 06:01:31;;;;;;;1.90;1.80;;;21.20;49.50;;;;;;5024578;28;20464;-58
2022/05/24 06:03:58;;;;;;;2.10;2.00;;;21.20;49.50;;;;;;5024805;28;20222;-58
2022/05/24 06:06:31;;;;;;;1.70;1.60;;;21.20;49.50;;;;;;5024330;28;20223;-58
2022/05/24 06:08:57;;;;;;;1.83;1.73;;;21.20;49.50;;;;;;5021162;28;20465;-58
2022/05/24 06:11:23;;;;;;;4.50;1.73;;;21.20;49.50;;;;;;5019656;28;20492;-59
2022/05/24 06:13:49;;;;;;;1.60;1.50;;;21.20;49.50;;;;;;5016464;28;20275;-59
2022/05/24 06:16:16;;;;;;;2.00;1.90;;;21.20;49.40;;;;;;5022755;28;20500;-58
2022/05/24 06:18:42;;;;;;;1.90;1.80;;;21.20;49.40;;;;;;5021065;28;21037;-58
2022/05/24 06:21:07;;;;;;;3.73;1.70;;;21.20;49.40;;;;;;5020019;28;20525;-59
2022/05/24 06:23:33;;;;;;;1.60;1.50;;;21.20;49.50;;;;;;5023928;28;20691;-58
2022/05/24 06:25:59;;;;;;;1.80;1.70;;;21.20;49.40;;;;;;5020457;28;20242;-59
2022/05/24 06:28:26;;;;;;;1.60;1.50;;;21.20;49.40;;;;;;5022814;28;20212;-58
2022/05/24 06:30:51;;;;;;;1.80;1.70;;;21.20;50.20;;;;;;5021747;28;20234;-58
2022/05/24 06:33:17;;;;;;;1.60;1.50;;;21.20;49.40;;;;;;5021042;28;20981;-58
2022/05/24 06:35:42;;;;;;;1.70;1.60;;;21.20;49.50;;;;;;5022720;28;20578;-58
2022/05/24 06:38:08;;;;;;;1.27;1.17;;;21.20;49.40;;;;;;5026374;28;20353;-59
2022/05/24 06:40:34;;;;;;;1.70;1.60;;;21.20;49.50;;;;;;5015233;28;20309;-58
2022/05/24 06:43:01;;;;;;;3.07;1.40;;;21.20;49.40;;;;;;5018519;28;20220;-58
2022/05/24 06:45:26;;;;;;;1.90;1.80;;;21.20;49.50;;;;;;5017367;28;20476;-58
2022/05/24 06:47:52;;;;;;;1.73;1.57;;;21.20;50.20;;;;;;5026832;28;20459;-58
2022/05/24 06:50:18;;;;;;;1.57;1.47;;;21.20;49.40;;;;;;5020546;28;20684;-58
2022/05/24 06:52:44;;;;;;;1.70;1.60;;;21.20;49.40;;;;;;5023791;28;20297;-59
2022/05/24 06:55:11;;;;;;;1.60;1.50;;;21.20;49.40;;;;;;5021788;28;20904;-59
2022/05/24 06:57:37;;;;;;;1.40;1.30;;;21.20;49.40;;;;;;5018817;28;20814;-58
2022/05/24 07:03:06;;;;;;;1.60;1.50;;;21.20;49.40;;;;;;5020724;28;20255;-58
2022/05/24 07:05:32;;;;;;;1.40;1.30;;;21.20;49.40;;;;;;5020431;28;20498;-58
2022/05/24 07:08:01;;;;;;;2.30;1.30;;;21.20;49.40;;;;;;5018851;28;20461;-58
2022/05/24 07:10:27;;;;;;;1.30;1.20;;;21.20;49.40;;;;;;5018526;28;20472;-58
2022/05/24 07:12:59;;;;;;;1.30;1.20;;;21.20;49.40;;;;;;5021366;28;20461;-58
2022/05/24 07:15:24;;;;;;;1.40;1.30;;;21.20;49.40;;;;;;5020839;28;20522;-58
2022/05/24 07:17:50;;;;;;;1.50;1.40;;;21.20;50.20;;;;;;5017843;28;20458;-59
2022/05/24 07:20:16;;;;;;;2.27;1.53;;;21.20;49.40;;;;;;5019059;28;20216;-58
2022/05/24 07:22:42;;;;;;;1.80;1.60;;;21.20;49.40;;;;;;5016222;28;20298;-59
2022/05/24 07:25:08;;;;;;;1.53;1.40;;;21.20;49.40;;;;;;5020733;28;20738;-58
2022/05/24 07:27:34;;;;;;;1.50;1.40;;;21.20;49.30;;;;;;5016737;28;20436;-58
2022/05/24 07:29:59;;;;;;;2.60;1.40;;;21.20;49.30;;;;;;5017160;28;20226;-58
2022/05/24 07:32:25;;;;;;;1.50;1.40;;;21.20;49.40;;;;;;5017283;28;20310;-58
2022/05/24 07:34:51;;;;;;;1.40;1.30;;;21.20;49.30;;;;;;5018315;28;20249;-59
2022/05/24 07:37:18;;;;;;;1.40;1.30;;;21.20;49.30;;;;;;5024132;28;20218;-58
2022/05/24 07:39:44;;;;;;;2.90;1.40;;;21.20;49.20;;;;;;5020171;28;20223;-58
2022/05/24 07:47:40;;;;;;;2.27;1.20;;;21.20;48.80;;;;;;4995267;28;20539;-58
2022/05/24 07:50:07;;;;;;;2.73;1.17;;;21.20;48.70;;;;;;5021845;28;20542;-59
2022/05/24 07:52:32;;;;;;;2.47;1.70;;;21.30;48.80;;;;;;5022019;28;20223;-58
2022/05/24 07:54:58;;;;;;;2.10;1.90;;;21.20;48.60;;;;;;5018187;28;20482;-58
2022/05/24 07:57:23;;;;;;;1.80;1.20;;;21.20;48.60;;;;;;5016455;28;20641;-58
2022/05/24 07:59:49;;;;;;;4.03;1.50;;;21.20;48.50;;;;;;5023517;28;20235;-59
2022/05/24 08:02:20;;;;;;;2.80;2.30;;;21.20;48.40;;;;;;5027780;28;20223;-58
2022/05/24 08:04:46;;;;;;;3.97;2.00;;;21.20;48.40;;;;;;5020388;28;20219;-59
2022/05/24 08:07:12;;;;;;;3.27;1.50;;;21.20;48.40;;;;;;5022141;28;20465;-58
2022/05/24 08:09:39;;;;;;;2.80;2.20;;;21.20;48.50;;;;;;5021524;28;20282;-58
2022/05/24 08:12:05;;;;;;;2.80;1.60;;;21.20;48.50;;;;;;5030085;28;20787;-59
2022/05/24 08:14:30;;;;;;;1.27;1.17;;;21.20;48.50;;;;;;5025207;28;20470;-58
2022/05/24 08:16:56;;;;;;;3.03;1.70;;;21.20;48.60;;;;;;5023730;28;20506;-59
2022/05/24 08:19:22;;;;;;;1.60;1.50;;;21.20;48.70;;;;;;5022805;28;20273;-59
2022/05/24 08:21:47;;;;;;;2.27;1.43;;;21.20;48.70;;;;;;5031635;28;20760;-59
2022/05/24 08:24:13;;;;;;;2.53;1.43;;;21.20;48.70;;;;;;5022666;28;20711;-59
2022/05/24 08:26:39;;;;;;;1.70;1.60;;;21.20;48.80;;;;;;5018918;28;20216;-59
2022/05/24 08:29:04;;;;;;;2.00;1.20;;;21.20;48.80;;;;;;5027484;28;20630;-58
2022/05/24 08:31:30;;;;;;;1.70;1.30;;;21.20;49.60;;;;;;5019983;28;20645;-59
2022/05/24 08:33:56;;;;;;;3.97;1.50;;;21.30;49.00;;;;;;5021671;28;20222;-58
2022/05/24 08:36:21;;;;;;;1.63;1.53;;;21.20;49.00;;;;;;5024745;28;20242;-59
2022/05/24 08:38:47;;;;;;;1.87;1.40;;;21.20;49.00;;;;;;5022322;28;20278;-59
2022/05/24 08:41:35;;;;;;;1.73;1.50;;;21.20;49.00;;;;;;5023713;28;20285;-59
2022/05/24 08:49:53;;;;;;;3.03;1.40;;;21.20;49.00;;;;;;5017461;28;20465;-59
2022/05/24 08:52:19;;;;;;;1.80;1.10;;;21.20;49.10;;;;;;5023042;28;20798;-59
2022/05/24 08:54:45;;;;;;;10.57;1.43;;;21.20;49.00;;;;;;5021937;28;20942;-59
2022/05/24 08:57:18;;;;;;;2.77;1.50;;;21.20;49.00;;;;;;5029371;28;20500;-59
2022/05/24 08:59:51;;;;;;;1.70;1.60;;;21.20;49.10;;;;;;5020122;28;20917;-59
2022/05/24 09:02:19;;;;;;;2.17;1.67;;;21.20;49.10;;;;;;5023411;28;20462;-58
2022/05/24 09:04:45;;;;;;;1.20;1.10;;;21.20;49.10;;;;;;5026544;28;20806;-59
2022/05/24 09:07:39;;;;;;;1.30;1.20;;;21.20;49.10;;;;;;5020276;28;20945;-59
2022/05/24 09:10:12;;;;;;;1.20;1.10;;;21.20;49.10;;;;;;5015210;28;20325;-58
2022/05/24 09:13:14;;;;;;;1.40;1.30;;;21.20;49.10;;;;;;5023251;28;20464;-59
2022/05/24 09:16:09;;;;;;;1.40;1.30;;;21.20;49.10;;;;;;5020788;28;20501;-59
2022/05/24 09:18:43;;;;;;;1.30;1.10;;;21.20;49.10;;;;;;5017281;28;20945;-59
2022/05/24 09:21:25;;;;;;;1.10;1.00;;;21.20;49.10;;;;;;5020188;28;20468;-59
2022/05/24 09:23:58;;;;;;;2.37;1.40;;;21.20;49.10;;;;;;5018950;28;20464;-58
2022/05/24 09:26:24;;;;;;;1.20;1.10;;;21.20;49.10;;;;;;5025685;28;20474;-59
2022/05/24 09:29:14;;;;;;;1.53;1.43;;;21.20;49.00;;;;;;5022470;28;20559;-59
2022/05/24 09:31:49;;;;;;;1.83;1.20;;;21.20;49.00;;;;;;5022328;28;20592;-58
2022/05/24 09:34:17;;;;;;;3.80;1.33;;;21.20;48.90;;;;;;5023977;28;20440;-58
2022/05/24 09:36:56;;;;;;;0.90;0.90;;;21.20;48.90;;;;;;5018896;28;20424;-59
2022/05/24 09:39:24;;;;;;;1.30;1.20;;;21.20;48.80;;;;;;5023555;28;20422;-58
2022/05/24 09:42:02;;;;;;;4.50;1.53;;;21.20;49.70;;;;;;5020220;28;20482;-58
2022/05/24 09:44:49;;;;;;;1.40;1.30;;;21.20;48.70;;;;;;5020305;28;20882;-58
2022/05/24 09:47:32;;;;;;;1.10;0.97;;;21.20;48.60;;;;;;5018493;28;20473;-58
2022/05/24 09:50:29;;;;;;;1.63;1.07;;;21.20;48.40;;;;;;5020719;28;20450;-58
2022/05/24 09:53:17;;;;;;;1.27;1.10;;;21.20;48.30;;;;;;5022801;28;20532;-58
2022/05/24 09:55:49;;;;;;;1.40;1.30;;;21.20;48.20;;;;;;5019247;28;20514;-58
2022/05/24 09:58:35;;;;;;;1.73;1.33;;;21.20;48.10;;;;;;5022503;28;20476;-58
2022/05/24 10:01:08;;;;;;;1.17;0.97;;;21.20;48.00;;;;;;5024522;28;20434;-58
2022/05/24 10:03:37;;;;;;;1.40;0.97;;;21.20;47.80;;;;;;5017698;28;20685;-58
2022/05/24 10:06:11;;;;;;;1.20;1.07;;;21.20;47.80;;;;;;5022199;28;21003;-58
2022/05/24 10:08:58;;;;;;;0.87;0.87;;;21.20;47.80;;;;;;5025161;28;20782;-59
2022/05/24 10:11:41;;;;;;;1.10;1.00;;;21.20;47.80;;;;;;5018793;28;20464;-59
2022/05/24 10:14:49;;;;;;;2.90;1.20;;;21.20;47.90;;;;;;5025936;28;20434;-59
2022/05/24 10:17:23;;;;;;;1.00;1.00;;;21.20;48.00;;;;;;4968590;28;20507;-58
2022/05/24 10:20:19;;;;;;;1.13;1.03;;;21.20;48.10;;;;;;5020267;28;20471;-58
2022/05/24 10:22:59;;;;;;;1.20;1.10;;;21.10;48.00;;;;;;5021221;28;21160;-59
2022/05/24 10:25:48;;;;;;;1.40;1.30;;;21.20;48.10;;;;;;5017885;28;20465;-58
2022/05/24 10:28:35;;;;;;;1.27;1.17;;;21.20;48.20;;;;;;5020642;28;20867;-58
2022/05/24 10:31:27;;;;;;;1.17;1.07;;;21.10;48.10;;;;;;5012590;28;20649;-58
2022/05/24 10:40:12;;;;;;;1.90;1.10;;;21.20;48.30;;;;;;5020089;28;20564;-58
2022/05/24 10:42:52;;;;;;;1.17;1.07;;;21.10;48.30;;;;;;5020261;28;20456;-58
2022/05/24 10:45:24;;;;;;;1.40;1.27;;;21.10;48.30;;;;;;5012674;28;20468;-58
2022/05/24 10:48:01;;;;;;;0.80;0.80;;;21.10;48.50;;;;;;5024583;28;20420;-58
2022/05/24 10:50:56;;;;;;;1.43;1.10;;;21.10;48.20;;;;;;5019791;28;20912;-58
2022/05/24 10:53:36;;;;;;;1.87;1.33;;;21.20;48.10;;;;;;5026868;28;20427;-58
2022/05/24 10:56:29;;;;;;;1.00;0.90;;;21.20;47.90;;;;;;5022026;28;20429;-58
2022/05/24 10:59:06;;;;;;;0.90;0.80;;;21.20;47.80;;;;;;5019266;28;20434;-58
2022/05/24 11:01:38;;;;;;;1.40;1.10;;;21.10;47.70;;;;;;5020529;28;20474;-58
2022/05/24 11:04:14;;;;;;;1.77;1.20;;;21.20;47.80;;;;;;5018882;28;20495;-58
2022/05/24 11:06:47;;;;;;;0.90;0.90;;;21.10;47.80;;;;;;5020098;28;20938;-59
2022/05/24 11:09:22;;;;;;;1.20;1.10;;;21.10;47.80;;;;;;5019683;28;20443;-58
2022/05/24 11:12:00;;;;;;;1.60;1.07;;;21.20;47.90;;;;;;5021006;28;20452;-58
2022/05/24 11:14:54;;;;;;;1.07;0.90;;;21.20;48.00;;;;;;5019826;28;20480;-58
2022/05/24 11:17:20;;;;;;;1.00;0.90;;;21.10;47.90;;;;;;5011204;28;20790;-58
2022/05/24 11:19:50;;;;;;;1.40;1.30;;;21.10;48.00;;;;;;5016515;28;20460;-58
2022/05/24 11:22:35;;;;;;;1.10;1.00;;;21.10;48.00;;;;;;5019308;28;20457;-58
2022/05/24 11:25:11;;;;;;;1.00;0.90;;;21.10;48.00;;;;;;5019593;28;20419;-58
2022/05/24 11:27:44;;;;;;;1.00;1.00;;;21.10;48.10;;;;;;5018262;28;20568;-58
2022/05/24 11:30:17;;;;;;;1.30;1.20;;;21.10;48.10;;;;;;5016400;28;20461;-58
2022/05/24 11:32:50;;;;;;;1.17;1.07;;;21.10;48.10;;;;;;5023088;28;20484;-58
2022/05/24 11:35:19;;;;;;;1.00;0.90;;;21.10;48.10;;;;;;5018917;28;20456;-57
2022/05/24 11:37:50;;;;;;;1.00;0.90;;;21.10;48.20;;;;;;5019027;28;20438;-58
2022/05/24 11:40:32;;;;;;;1.07;0.97;;;21.10;48.20;;;;;;5028913;28;20820;-59
2022/05/24 11:43:04;;;;;;;1.20;1.10;;;21.10;48.20;;;;;;5022422;28;20450;-59
2022/05/24 11:45:30;;;;;;;1.67;1.10;;;21.10;48.30;;;;;;5026830;28;20468;-58
2022/05/24 11:48:06;;;;;;;1.60;1.13;;;21.10;48.30;;;;;;5023254;28;21195;-58
2022/05/24 11:50:43;;;;;;;0.90;0.90;;;21.10;48.30;;;;;;5023951;28;20250;-58
2022/05/24 11:53:09;;;;;;;1.20;1.00;;;21.10;48.30;;;;;;5027635;28;20795;-58
2022/05/24 11:55:46;;;;;;;0.90;0.90;;;21.10;48.30;;;;;;5024044;28;20449;-58
2022/05/24 11:58:21;;;;;;;1.10;1.00;;;21.10;48.30;;;;;;5032205;28;20741;-58
2022/05/24 12:01:13;;;;;;;1.00;0.90;;;21.10;48.30;;;;;;5024840;28;20457;-58
2022/05/24 12:10:21;;;;;;;1.13;1.03;;;21.10;48.40;;;;;;5012017;28;20464;-58
2022/05/24 12:12:57;;;;;;;1.20;1.10;;;21.10;48.90;;;;;;5029655;28;20459;-58
2022/05/24 12:15:25;;;;;;;1.10;1.00;;;21.10;48.50;;;;;;5024399;28;20215;-58
2022/05/24 12:17:59;;;;;;;1.83;1.00;;;21.10;48.50;;;;;;5021788;28;20551;-58
2022/05/24 12:20:27;;;;;;;1.20;1.10;;;21.10;48.50;;;;;;5022047;28;20550;-58
2022/05/24 12:23:09;;;;;;;1.73;1.20;;;21.10;48.50;;;;;;5025569;28;20456;-58
2022/05/24 12:26:03;;;;;;;0.90;0.90;;;21.10;48.50;;;;;;5025702;28;20464;-58
2022/05/24 12:28:46;;;;;;;1.17;1.07;;;21.10;48.50;;;;;;5026715;28;25746;-58
2022/05/24 12:31:17;;;;;;;1.00;0.90;;;21.10;48.60;;;;;;5023814;28;20461;-59
2022/05/24 12:33:53;;;;;;;1.17;1.07;;;21.10;48.60;;;;;;5026165;28;20952;-58
2022/05/24 12:36:36;;;;;;;1.00;1.00;;;21.10;48.60;;;;;;5024858;28;20460;-58
2022/05/24 12:39:07;;;;;;;1.17;1.07;;;21.10;48.60;;;;;;5029349;28;20462;-58
2022/05/24 12:41:48;;;;;;;1.20;1.10;;;21.10;48.50;;;;;;5029461;28;21064;-59
2022/05/24 12:44:48;;;;;;;1.17;1.00;;;21.10;48.50;;;;;;5027748;28;20531;-58
2022/05/24 12:47:18;;;;;;;1.40;1.10;;;21.10;48.40;;;;;;5022332;28;20480;-58
2022/05/24 12:49:57;;;;;;;1.23;1.13;;;21.10;48.10;;;;;;5023191;28;20477;-58
2022/05/24 12:52:28;;;;;;;3.40;1.10;;;21.10;47.80;;;;;;5020013;28;20801;-58
2022/05/24 12:55:06;;;;;;;1.30;1.13;;;21.20;47.60;;;;;;5027597;28;20986;-59
2022/05/24 12:57:39;;;;;;;3.73;1.20;;;21.10;47.20;;;;;;5022901;28;20423;-58
2022/05/24 13:00:09;;;;;;;1.37;1.13;;;21.20;47.00;;;;;;5018990;28;20453;-59
2022/05/24 13:02:46;;;;;;;5.70;1.23;;;21.10;46.80;;;;;;5019337;28;20495;-58
2022/05/24 13:05:21;;;;;;;9.63;1.50;;;21.10;46.30;;;;;;5020840;28;20452;-59
2022/05/24 13:07:57;;;;;;;1.87;1.10;;;21.10;45.70;;;;;;5023891;28;20458;-58
2022/05/24 13:10:39;;;;;;;1.33;1.20;;;21.20;45.70;;;;;;5025773;28;20927;-60
2022/05/24 13:13:13;;;;;;;5.80;1.17;;;21.10;45.70;;;;;;5018448;28;20456;-58
2022/05/24 13:15:45;;;;;;;2.73;1.60;;;21.10;45.70;;;;;;5020557;28;20940;-58
2022/05/24 13:18:20;;;;;;;2.47;0.90;;;21.10;45.70;;;;;;5026031;28;20449;-59
2022/05/24 13:20:49;;;;;;;1.20;1.10;;;21.10;45.70;;;;;;5018896;28;20451;-58
2022/05/24 13:23:15;;;;;;;1.33;1.23;;;21.10;45.70;;;;;;5024433;28;20888;-58
2022/05/24 13:25:53;;;;;;;1.53;1.10;;;21.10;45.70;;;;;;5018750;28;20485;-59
2022/05/24 13:28:42;;;;;;;4.50;1.20;;;21.10;45.70;;;;;;5020829;28;20325;-58
2022/05/24 13:33:57;;;;;;;1.10;1.00;;;21.10;45.70;;;;;;5017575;28;20439;-58
2022/05/24 13:36:29;;;;;;;1.20;1.10;;;21.10;45.70;;;;;;5024544;28;21010;-58
2022/05/24 13:39:03;;;;;;;2.07;0.97;;;21.10;45.90;;;;;;5019270;28;20536;-58
2022/05/24 13:41:36;;;;;;;3.27;1.10;;;21.10;46.00;;;;;;5016401;28;20452;-58
2022/05/24 13:44:16;;;;;;;1.30;1.20;;;21.10;46.20;;;;;;5024619;28;20465;-58
2022/05/24 13:46:54;;;;;;;1.30;1.20;;;21.10;46.30;;;;;;5018899;28;20514;-58
2022/05/24 13:49:40;;;;;;;3.20;1.10;;;21.10;46.40;;;;;;5020546;28;21059;-58
2022/05/24 13:52:18;;;;;;;1.40;1.00;;;21.20;46.60;;;;;;5025792;28;20562;-58
2022/05/24 13:54:44;;;;;;;0.97;0.97;;;21.10;46.70;;;;;;5026635;28;20444;-58